createdAt,value
2023-04-12T00:05:50.447Z,986
2023-04-12T00:11:50.403Z,986
2023-04-12T00:17:50.451Z,986
2023-04-12T00:23:50.405Z,985
2023-04-12T00:29:50.399Z,985
2023-04-12T00:41:50.384Z,985
2023-04-12T00:47:50.507Z,985
2023-04-12T00:53:50.392Z,985
2023-04-12T00:59:50.405Z,985
2023-04-12T01:05:50.434Z,985
2023-04-12T01:12:00.678Z,984
2023-04-12T01:17:50.436Z,984
2023-04-12T01:23:50.404Z,984
2023-04-12T01:29:50.396Z,984
2023-04-12T01:35:50.400Z,984
2023-04-12T01:41:50.384Z,984
2023-04-12T01:47:50.464Z,984
2023-04-12T01:53:50.458Z,984
2023-04-12T01:59:50.372Z,984
2023-04-12T02:05:50.392Z,983
2023-04-12T02:11:50.383Z,983
2023-04-12T02:17:50.427Z,983
2023-04-12T02:23:50.385Z,983
2023-04-12T02:29:50.375Z,983
2023-04-12T02:35:50.460Z,983
2023-04-12T02:41:50.463Z,982
2023-04-12T02:47:50.427Z,983
2023-04-12T02:53:50.371Z,982
2023-04-12T02:59:50.408Z,982
2023-04-12T03:05:50.378Z,982
2023-04-12T03:11:50.392Z,982
2023-04-12T03:17:50.427Z,982
2023-04-12T03:23:50.419Z,981
2023-04-12T03:29:50.370Z,981
2023-04-12T03:35:50.405Z,981
2023-04-12T03:41:50.361Z,981
2023-04-12T03:47:50.422Z,981
2023-04-12T03:53:50.576Z,981
2023-04-12T03:59:50.389Z,981
2023-04-12T04:05:50.389Z,981
2023-04-12T04:11:50.378Z,980
2023-04-12T04:17:50.399Z,980
2023-04-12T04:23:50.380Z,980
2023-04-12T04:29:50.410Z,980
2023-04-12T04:41:50.380Z,980
2023-04-12T04:47:50.408Z,979
2023-04-12T04:53:50.403Z,979
2023-04-12T04:59:50.370Z,979
2023-04-12T05:05:50.369Z,979
2023-04-12T05:11:50.373Z,979
2023-04-12T05:17:50.440Z,979
2023-04-12T05:23:50.371Z,979
2023-04-12T05:29:50.361Z,979
2023-04-12T05:35:50.425Z,979
2023-04-12T05:41:50.413Z,979
2023-04-12T05:47:50.442Z,979
2023-04-12T05:53:50.366Z,979
2023-04-12T05:59:50.379Z,979
2023-04-12T06:05:50.363Z,978
2023-04-12T06:11:50.372Z,978
2023-04-12T06:21:50.363Z,978
2023-04-12T06:27:50.384Z,978
2023-04-12T06:33:50.404Z,978
2023-04-12T06:39:50.372Z,978
2023-04-12T06:45:50.407Z,978
2023-04-12T06:52:00.640Z,978
2023-04-12T06:57:50.356Z,978
2023-04-12T07:03:50.470Z,977
2023-04-12T07:09:50.346Z,977
2023-04-12T07:15:50.352Z,977
2023-04-12T07:21:50.422Z,977
2023-04-12T07:27:51.803Z,977
2023-04-12T07:33:50.421Z,977
2023-04-12T07:39:50.396Z,977
2023-04-12T07:46:00.672Z,977
2023-04-12T07:51:50.343Z,977
2023-04-12T07:57:50.359Z,977
2023-04-12T08:03:50.481Z,977
2023-04-12T08:09:50.355Z,977
2023-04-12T08:15:50.366Z,977
2023-04-12T08:21:50.361Z,976
2023-04-12T08:27:50.391Z,976
2023-04-12T08:35:50.632Z,976
2023-04-12T08:41:50.339Z,976
2023-04-12T08:47:50.399Z,976
2023-04-12T08:53:50.372Z,976
2023-04-12T08:59:50.360Z,976
2023-04-12T09:05:50.423Z,976
2023-04-12T09:11:50.357Z,976
2023-04-12T09:17:50.415Z,976
2023-04-12T09:23:50.349Z,976
2023-04-12T09:29:50.349Z,976
2023-04-12T09:35:50.470Z,976
2023-04-12T09:41:50.352Z,976
2023-04-12T09:47:50.411Z,976
2023-04-12T09:53:50.343Z,976
2023-04-12T09:59:50.351Z,976
2023-04-12T10:05:50.371Z,976
2023-04-12T10:11:50.382Z,976
2023-04-12T10:17:50.394Z,976
2023-04-12T10:23:50.332Z,975
2023-04-12T10:29:50.374Z,975
2023-04-12T10:35:50.400Z,975
2023-04-12T10:41:50.355Z,975
2023-04-12T10:47:50.481Z,975
2023-04-12T10:53:50.332Z,975
2023-04-12T10:59:50.348Z,975
2023-04-12T11:05:50.349Z,975
2023-04-12T11:11:50.408Z,975
2023-04-12T11:17:50.439Z,975
2023-04-12T11:23:50.371Z,975
2023-04-12T11:29:50.347Z,975
2023-04-12T11:35:50.370Z,975
2023-04-12T11:41:50.354Z,975
2023-04-12T11:47:50.379Z,976
2023-04-12T11:53:50.546Z,976
2023-04-12T11:59:50.431Z,976
2023-04-12T12:05:50.666Z,976
2023-04-12T12:11:50.430Z,976
2023-04-12T12:17:50.393Z,976
2023-04-12T12:23:50.381Z,976
2023-04-12T12:29:50.338Z,976
2023-04-12T12:35:50.357Z,976
2023-04-12T12:41:50.357Z,976
2023-04-12T12:47:50.527Z,976
2023-04-12T12:53:50.361Z,975
2023-04-12T12:59:50.365Z,975
2023-04-12T13:05:50.400Z,976
2023-04-12T13:11:50.345Z,976
2023-04-12T13:17:50.381Z,976
2023-04-12T13:23:50.366Z,976
2023-04-12T13:29:50.367Z,976
2023-04-12T13:35:50.360Z,976
2023-04-12T13:41:50.351Z,976
2023-04-12T13:47:50.417Z,976
2023-04-12T13:53:50.346Z,975
2023-04-12T13:59:50.356Z,975
2023-04-12T14:05:50.343Z,975
2023-04-12T14:11:50.339Z,975
2023-04-12T14:17:50.439Z,975
2023-04-12T14:23:50.352Z,975
2023-04-12T14:29:50.360Z,975
2023-04-12T14:35:50.349Z,975
2023-04-12T14:41:50.347Z,975
2023-04-12T14:47:50.415Z,975
2023-04-12T14:53:50.365Z,975
2023-04-12T14:59:50.361Z,975
2023-04-12T15:05:50.417Z,975
2023-04-12T15:11:50.359Z,975
2023-04-12T15:17:50.366Z,975
2023-04-12T15:24:00.690Z,975
2023-04-12T15:29:50.455Z,975
2023-04-12T15:35:50.434Z,975
2023-04-12T15:41:50.347Z,976
2023-04-12T15:47:50.378Z,976
2023-04-12T15:53:50.343Z,977
2023-04-12T15:59:50.369Z,977
2023-04-12T16:05:50.375Z,977
2023-04-12T16:11:50.358Z,977
2023-04-12T16:17:50.394Z,977
2023-04-12T16:23:50.370Z,977
2023-04-12T16:29:50.357Z,977
2023-04-12T16:41:50.395Z,977
2023-04-12T16:47:50.415Z,977
2023-04-12T16:53:50.383Z,977
2023-04-12T16:59:50.375Z,977
2023-04-12T17:05:50.341Z,977
2023-04-12T17:11:50.355Z,977
2023-04-12T17:17:50.412Z,977
2023-04-12T17:23:50.341Z,977
2023-04-12T17:29:50.537Z,977
2023-04-12T17:35:50.342Z,977
2023-04-12T17:41:50.363Z,977
2023-04-12T17:47:50.424Z,977
2023-04-12T17:53:50.363Z,977
2023-04-12T17:59:50.357Z,978
2023-04-12T18:05:50.388Z,978
2023-04-12T18:11:50.348Z,978
2023-04-12T18:17:50.385Z,978
2023-04-12T18:23:50.356Z,978
2023-04-12T18:29:50.346Z,978
2023-04-12T18:35:50.357Z,978
2023-04-12T18:41:50.338Z,978
2023-04-12T18:47:50.518Z,978
2023-04-12T18:53:50.363Z,978
2023-04-12T18:59:50.353Z,978
2023-04-12T19:05:50.358Z,978
2023-04-12T19:11:50.365Z,978
2023-04-12T19:17:50.376Z,978
2023-04-12T19:23:50.362Z,978
2023-04-12T19:29:50.397Z,978
2023-04-12T19:35:50.341Z,978
2023-04-12T19:41:50.338Z,978
2023-04-12T19:47:50.363Z,978
2023-04-12T19:53:50.378Z,978
2023-04-12T19:59:50.352Z,978
2023-04-12T20:11:50.350Z,978
2023-04-12T20:17:50.357Z,978
2023-04-12T20:23:50.346Z,978
2023-04-12T20:29:50.333Z,978
2023-04-12T20:35:50.350Z,978
2023-04-12T20:41:50.328Z,978
2023-04-12T20:47:50.349Z,978
2023-04-12T20:53:50.351Z,978
2023-04-12T20:59:50.352Z,978
2023-04-12T21:05:50.360Z,978
2023-04-12T21:11:50.343Z,978
2023-04-12T21:17:50.380Z,978
2023-04-12T21:23:50.389Z,978
2023-04-12T21:29:50.404Z,978
2023-04-12T21:35:50.341Z,978
2023-04-12T21:41:50.332Z,978
2023-04-12T21:47:50.410Z,979
2023-04-12T21:53:50.341Z,978
2023-04-12T21:59:50.356Z,978
2023-04-12T22:06:02.878Z,978
2023-04-12T22:11:50.344Z,978
2023-04-12T22:17:50.360Z,978
2023-04-12T22:23:50.332Z,978
2023-04-12T22:29:50.334Z,978
2023-04-12T22:35:50.331Z,978
2023-04-12T22:41:50.344Z,978
2023-04-12T22:47:50.379Z,978
2023-04-12T22:53:50.323Z,978
2023-04-12T22:59:50.321Z,978
2023-04-12T23:05:50.340Z,978
2023-04-12T23:11:50.373Z,978
2023-04-12T23:17:50.420Z,978
2023-04-12T23:23:50.341Z,978
2023-04-12T23:29:50.332Z,977
2023-04-12T23:35:50.359Z,977
2023-04-12T23:41:50.334Z,977
2023-04-12T23:47:50.388Z,977
2023-04-12T23:53:50.474Z,977
2023-04-12T23:59:50.326Z,977
